createdAt,value
2022-07-26T00:00:58.550Z,12.40
2022-07-26T00:03:32.423Z,12.40
2022-07-26T00:06:03.711Z,11.10
2022-07-26T00:08:35.012Z,11.23
2022-07-26T00:11:07.592Z,9.60
2022-07-26T00:13:39.073Z,8.75
2022-07-26T00:16:10.562Z,8.23
2022-07-26T00:18:41.829Z,11.93
2022-07-26T00:21:13.336Z,7.07
2022-07-26T00:23:44.911Z,7.28
2022-07-26T00:26:16.217Z,8.50
2022-07-26T00:28:48.558Z,7.88
2022-07-26T00:31:20.086Z,6.22
2022-07-26T00:33:51.434Z,7.45
2022-07-26T00:36:22.851Z,7.05
2022-07-26T00:38:54.324Z,8.05
2022-07-26T00:41:25.443Z,6.82
2022-07-26T00:44:19.125Z,6.60
2022-07-26T00:46:50.660Z,6.53
2022-07-26T00:49:21.961Z,7.75
2022-07-26T00:51:53.208Z,8.38
2022-07-26T00:54:24.610Z,7.25
2022-07-26T00:56:56.394Z,5.95
2022-07-26T00:59:29.038Z,7.00
2022-07-26T01:02:00.807Z,5.93
2022-07-26T01:04:31.973Z,6.40
2022-07-26T01:07:14.983Z,6.90
2022-07-26T01:09:47.529Z,6.63
2022-07-26T01:12:19.711Z,7.40
2022-07-26T01:14:55.155Z,7.80
2022-07-26T01:17:26.602Z,7.25
2022-07-26T01:19:57.923Z,6.53
2022-07-26T01:22:30.709Z,7.65
2022-07-26T01:25:02.751Z,7.22
2022-07-26T01:27:35.822Z,6.70
2022-07-26T01:30:08.583Z,6.78
2022-07-26T01:32:40.099Z,6.82
2022-07-26T01:35:12.110Z,8.90
2022-07-26T01:37:43.339Z,11.38
2022-07-26T01:40:16.223Z,6.90
2022-07-26T01:42:47.555Z,6.75
2022-07-26T01:48:27.452Z,7.15
2022-07-26T01:51:01.213Z,8.00
2022-07-26T01:56:17.223Z,6.10
2022-07-26T02:01:38.824Z,8.07
2022-07-26T02:04:32.565Z,7.55
2022-07-26T02:07:05.456Z,7.35
2022-07-26T02:10:19.136Z,6.55
2022-07-26T02:12:50.374Z,8.07
2022-07-26T02:15:22.650Z,7.70
2022-07-26T02:17:54.028Z,6.78
2022-07-26T02:20:46.682Z,7.63
2022-07-26T02:23:19.230Z,9.45
2022-07-26T02:25:50.432Z,7.80
2022-07-26T02:28:23.736Z,7.05
2022-07-26T02:30:55.253Z,9.07
2022-07-26T02:33:49.078Z,6.75
2022-07-26T02:36:23.630Z,7.05
2022-07-26T02:39:16.813Z,7.10
2022-07-26T02:41:47.961Z,8.25
2022-07-26T02:44:22.245Z,6.88
2022-07-26T02:46:54.724Z,7.93
2022-07-26T02:49:26.209Z,7.55
2022-07-26T02:51:57.452Z,5.90
2022-07-26T02:54:28.939Z,7.53
2022-07-26T02:57:00.349Z,6.65
2022-07-26T02:59:51.978Z,7.47
2022-07-26T03:02:43.384Z,9.55
2022-07-26T03:05:15.062Z,7.13
2022-07-26T03:07:46.327Z,6.95
2022-07-26T03:10:20.553Z,8.63
2022-07-26T03:12:53.068Z,8.50
2022-07-26T03:15:28.267Z,7.38
2022-07-26T03:17:59.521Z,8.63
2022-07-26T03:20:31.014Z,8.48
2022-07-26T03:23:02.236Z,8.75
2022-07-26T03:25:33.460Z,7.93
2022-07-26T03:34:03.303Z,9.35
2022-07-26T03:36:54.536Z,10.70
2022-07-26T03:39:26.971Z,8.18
2022-07-26T03:41:58.227Z,11.77
2022-07-26T03:44:29.655Z,11.20
2022-07-26T03:47:01.626Z,8.63
2022-07-26T03:49:33.226Z,9.95
2022-07-26T03:54:49.589Z,11.80
2022-07-26T03:57:20.913Z,11.00
2022-07-26T04:00:11.638Z,8.77
2022-07-26T04:02:43.540Z,11.02
2022-07-26T04:05:15.027Z,9.70
2022-07-26T04:07:53.193Z,8.77
2022-07-26T04:10:25.423Z,8.98
2022-07-26T04:12:56.598Z,10.65
2022-07-26T04:15:27.859Z,12.95
2022-07-26T04:17:59.269Z,10.02
2022-07-26T04:20:32.008Z,9.85
2022-07-26T04:23:04.796Z,8.68
2022-07-26T04:25:43.057Z,9.45
2022-07-26T04:28:15.976Z,9.63
2022-07-26T04:30:48.456Z,29.02
2022-07-26T04:33:20.117Z,51.35
2022-07-26T04:35:51.547Z,45.78
2022-07-26T04:38:23.141Z,30.35
2022-07-26T04:44:07.963Z,22.00
2022-07-26T04:46:39.512Z,22.27
2022-07-26T04:49:16.575Z,16.70
2022-07-26T04:51:48.940Z,19.17
2022-07-26T04:54:24.195Z,14.98
2022-07-26T04:56:55.479Z,14.90
2022-07-26T04:59:58.094Z,17.05
2022-07-26T05:03:21.159Z,14.35
2022-07-26T05:05:52.508Z,13.90
2022-07-26T05:08:23.850Z,20.55
2022-07-26T05:11:00.772Z,20.30
2022-07-26T05:13:32.362Z,13.68
2022-07-26T05:16:44.450Z,22.45
2022-07-26T05:19:19.558Z,15.75
2022-07-26T05:22:11.688Z,11.45
2022-07-26T05:24:44.220Z,12.27
2022-07-26T05:27:34.981Z,13.75
2022-07-26T05:30:07.835Z,13.35
2022-07-26T05:32:40.893Z,15.10
2022-07-26T05:35:12.395Z,13.25
2022-07-26T05:37:43.567Z,14.88
2022-07-26T05:40:39.278Z,18.10
2022-07-26T05:43:16.122Z,15.05
2022-07-26T05:45:47.646Z,15.45
2022-07-26T05:48:19.058Z,11.38
2022-07-26T05:50:51.253Z,10.63
2022-07-26T05:53:43.532Z,12.98
2022-07-26T05:57:01.804Z,11.10
2022-07-26T06:00:16.735Z,12.55
2022-07-26T06:14:14.345Z,11.63
2022-07-26T06:17:37.236Z,11.23
2022-07-26T06:20:34.033Z,12.57
2022-07-26T06:23:07.093Z,10.77
2022-07-26T06:39:51.383Z,10.25
2022-07-26T06:42:26.787Z,11.20
2022-07-26T06:45:23.452Z,8.02
2022-07-26T06:48:37.178Z,8.68
2022-07-26T06:51:53.028Z,8.55
2022-07-26T07:13:59.571Z,10.00
2022-07-26T07:16:52.224Z,9.37
2022-07-26T07:19:43.493Z,7.82
2022-07-26T07:23:01.876Z,9.48
2022-07-26T07:25:33.472Z,6.85
2022-07-26T07:28:55.847Z,8.27
2022-07-26T07:31:54.343Z,8.07
2022-07-26T07:50:05.730Z,9.38
2022-07-26T07:52:59.326Z,7.53
2022-07-26T07:56:38.975Z,7.65
2022-07-26T07:59:15.743Z,9.75
2022-07-26T08:04:40.735Z,7.30
2022-07-26T08:18:36.437Z,7.13
2022-07-26T08:21:13.454Z,9.65
2022-07-26T08:42:22.521Z,7.60
2022-07-26T08:45:41.036Z,7.40
2022-07-26T08:48:55.155Z,6.93
2022-07-26T08:51:48.189Z,6.78
2022-07-26T08:54:23.842Z,7.32
2022-07-26T09:09:41.281Z,8.13
2022-07-26T09:12:42.681Z,8.00
2022-07-26T09:16:06.462Z,9.00
2022-07-26T09:18:58.794Z,7.78
2022-07-26T09:22:45.647Z,7.82
2022-07-26T09:25:26.367Z,10.30
2022-07-26T09:49:11.023Z,8.55
2022-07-26T09:52:16.087Z,7.70
2022-07-26T09:55:41.029Z,8.60
2022-07-26T10:08:19.828Z,8.15
2022-07-26T10:11:32.537Z,7.63
2022-07-26T10:17:35.251Z,7.95
2022-07-26T10:20:32.630Z,8.70
2022-07-26T10:37:59.112Z,8.52
2022-07-26T10:40:55.177Z,8.32
2022-07-26T10:44:27.430Z,8.15
2022-07-26T10:47:09.141Z,8.35
2022-07-26T10:50:27.449Z,7.80
2022-07-26T10:53:05.854Z,7.18
2022-07-26T10:55:52.129Z,8.20
2022-07-26T10:59:04.972Z,8.13
2022-07-26T11:17:12.568Z,8.43
2022-07-26T11:19:44.329Z,7.97
2022-07-26T11:22:45.003Z,9.83
2022-07-26T11:25:36.384Z,11.73
2022-07-26T11:28:29.623Z,9.90
2022-07-26T11:31:03.738Z,9.60
2022-07-26T11:34:06.459Z,10.90
2022-07-26T11:37:05.203Z,10.85
2022-07-26T11:50:23.149Z,8.70
2022-07-26T11:53:23.807Z,9.88
2022-07-26T11:56:24.479Z,8.88
2022-07-26T11:59:22.897Z,9.95
2022-07-26T12:02:39.909Z,14.35
2022-07-26T12:05:42.732Z,11.63
2022-07-26T12:08:15.679Z,10.43
2022-07-26T12:41:52.343Z,9.20
2022-07-26T12:45:27.085Z,9.88
2022-07-26T12:48:43.189Z,9.55
2022-07-26T12:52:14.082Z,9.20
2022-07-26T12:55:31.678Z,10.85
2022-07-26T13:16:53.811Z,9.10
2022-07-26T13:19:47.770Z,11.35
2022-07-26T13:23:17.883Z,9.88
2022-07-26T13:29:23.706Z,10.23
2022-07-26T13:32:35.147Z,9.15
2022-07-26T13:35:31.342Z,10.93
2022-07-26T13:41:56.021Z,8.70
2022-07-26T13:47:29.944Z,9.32
2022-07-26T13:50:03.579Z,9.63
2022-07-26T13:57:02.306Z,10.70
2022-07-26T14:16:05.591Z,10.05
2022-07-26T14:19:02.440Z,9.68
2022-07-26T14:22:00.798Z,10.85
2022-07-26T14:25:16.147Z,9.90
2022-07-26T14:27:50.863Z,10.93
2022-07-26T14:30:25.602Z,10.52
2022-07-26T14:45:41.277Z,10.68
2022-07-26T14:49:17.334Z,10.07
2022-07-26T14:52:10.742Z,12.15
2022-07-26T15:08:22.376Z,10.98
2022-07-26T15:11:42.545Z,11.55
2022-07-26T15:14:40.849Z,12.20
2022-07-26T15:31:14.867Z,11.02
2022-07-26T15:34:10.471Z,13.30
2022-07-26T15:37:10.823Z,10.57
2022-07-26T15:40:25.396Z,9.63
2022-07-26T15:43:44.091Z,9.63
2022-07-26T15:47:52.166Z,11.05
2022-07-26T15:50:55.799Z,12.37
2022-07-26T16:15:27.750Z,14.30
2022-07-26T16:18:22.312Z,13.05
2022-07-26T16:37:20.530Z,11.00
2022-07-26T16:40:12.371Z,11.35
2022-07-26T16:43:09.478Z,12.40
2022-07-26T16:45:44.926Z,10.20
2022-07-26T16:51:15.260Z,11.38
2022-07-26T16:54:27.921Z,10.82
2022-07-26T16:57:05.038Z,9.77
2022-07-26T16:59:42.470Z,11.48
2022-07-26T17:02:18.858Z,10.27
2022-07-26T17:05:53.094Z,11.63
2022-07-26T17:08:46.203Z,9.57
2022-07-26T17:11:18.165Z,9.77
2022-07-26T17:13:54.667Z,10.07
2022-07-26T17:16:27.510Z,10.20
2022-07-26T17:19:01.933Z,10.77
2022-07-26T17:21:37.311Z,10.95
2022-07-26T17:24:11.083Z,9.57
2022-07-26T17:26:43.823Z,9.57
2022-07-26T17:29:16.863Z,10.20
2022-07-26T17:32:09.631Z,10.65
2022-07-26T17:35:00.853Z,11.38
2022-07-26T17:37:32.572Z,11.27
2022-07-26T17:40:29.603Z,10.68
2022-07-26T17:43:04.143Z,10.70
2022-07-26T17:45:56.993Z,11.30
2022-07-26T17:48:30.101Z,12.45
2022-07-26T17:51:01.863Z,10.23
2022-07-26T17:53:36.127Z,9.38
2022-07-26T17:56:27.864Z,10.32
2022-07-26T17:59:17.921Z,8.90
2022-07-26T18:01:53.434Z,10.63
2022-07-26T18:04:27.291Z,10.35
2022-07-26T18:06:58.743Z,10.95
2022-07-26T18:09:51.383Z,9.55
2022-07-26T18:12:23.183Z,9.90
2022-07-26T18:15:14.619Z,9.27
2022-07-26T18:17:48.873Z,11.30
2022-07-26T18:20:20.531Z,12.05
2022-07-26T18:22:56.981Z,8.73
2022-07-26T18:25:31.492Z,11.00
2022-07-26T18:28:07.088Z,9.27
2022-07-26T18:30:39.285Z,9.38
2022-07-26T18:33:13.487Z,10.48
2022-07-26T18:35:45.086Z,10.38
2022-07-26T18:38:16.961Z,9.25
2022-07-26T18:41:08.791Z,10.05
2022-07-26T18:43:40.375Z,9.90
2022-07-26T18:46:12.237Z,10.82
2022-07-26T18:48:43.918Z,9.48
2022-07-26T18:51:15.376Z,9.50
2022-07-26T18:53:46.894Z,12.23
2022-07-26T18:56:18.434Z,9.50
2022-07-26T18:58:50.024Z,9.63
2022-07-26T19:01:21.611Z,9.38
2022-07-26T19:03:53.191Z,10.13
2022-07-26T19:06:24.848Z,10.07
2022-07-26T19:08:56.311Z,12.13
2022-07-26T19:11:31.018Z,9.40
2022-07-26T19:14:03.358Z,10.65
2022-07-26T19:16:35.356Z,10.02
2022-07-26T19:19:06.835Z,10.15
2022-07-26T19:21:38.285Z,10.05
2022-07-26T19:24:09.783Z,9.75
2022-07-26T19:26:41.292Z,9.90
2022-07-26T19:29:13.433Z,9.95
2022-07-26T19:31:47.145Z,9.70
2022-07-26T19:34:18.580Z,9.40
2022-07-26T19:36:49.883Z,9.60
2022-07-26T19:39:22.359Z,10.68
2022-07-26T19:41:54.098Z,9.48
2022-07-26T19:44:25.852Z,9.35
2022-07-26T19:46:58.046Z,9.82
2022-07-26T19:49:30.263Z,9.93
2022-07-26T19:52:01.704Z,9.07
2022-07-26T19:54:33.289Z,8.93
2022-07-26T19:57:04.947Z,9.57
2022-07-26T19:59:36.541Z,10.38
2022-07-26T20:02:08.004Z,9.13
2022-07-26T20:04:59.569Z,10.68
2022-07-26T20:07:30.976Z,9.40
2022-07-26T20:10:03.732Z,9.80
2022-07-26T20:12:35.911Z,11.47
2022-07-26T20:15:09.585Z,10.30
2022-07-26T20:20:14.004Z,9.55
2022-07-26T20:22:45.517Z,9.77
2022-07-26T20:25:21.382Z,9.75
2022-07-26T20:27:54.408Z,9.80
2022-07-26T20:30:25.869Z,10.63
2022-07-26T20:32:57.245Z,8.90
2022-07-26T20:35:28.849Z,8.63
2022-07-26T20:38:00.562Z,8.77
2022-07-26T20:40:32.545Z,9.27
2022-07-26T20:43:05.669Z,9.02
2022-07-26T20:45:37.431Z,9.95
2022-07-26T20:48:09.473Z,9.23
2022-07-26T20:50:41.267Z,8.25
2022-07-26T20:53:12.858Z,8.50
2022-07-26T20:55:44.518Z,10.25
2022-07-26T20:58:17.695Z,9.10
2022-07-26T21:00:49.217Z,8.60
2022-07-26T21:03:23.822Z,8.43
2022-07-26T21:05:55.039Z,10.05
2022-07-26T21:08:26.333Z,8.85
2022-07-26T21:10:58.016Z,9.25
2022-07-26T21:13:29.683Z,9.00
2022-07-26T21:16:01.097Z,9.45
2022-07-26T21:18:34.207Z,8.65
2022-07-26T21:21:05.920Z,8.70
2022-07-26T21:23:37.420Z,9.15
2022-07-26T21:26:08.775Z,10.45
2022-07-26T21:28:40.376Z,9.95
2022-07-26T21:31:11.927Z,8.85
2022-07-26T21:33:45.470Z,8.45
2022-07-26T21:36:16.854Z,7.57
2022-07-26T21:38:48.186Z,7.55
2022-07-26T21:41:19.469Z,8.55
2022-07-26T21:43:50.989Z,9.70
2022-07-26T21:46:22.727Z,9.63
2022-07-26T21:48:54.622Z,8.40
2022-07-26T21:51:26.326Z,10.48
2022-07-26T21:53:58.525Z,8.18
2022-07-26T21:56:33.051Z,8.27
2022-07-26T22:01:48.455Z,8.82
2022-07-26T22:04:20.035Z,9.35
2022-07-26T22:06:51.387Z,8.50
2022-07-26T22:09:22.646Z,8.93
2022-07-26T22:11:54.056Z,8.63
2022-07-26T22:14:26.301Z,8.68
2022-07-26T22:16:57.655Z,8.68
2022-07-26T22:19:29.199Z,8.40
2022-07-26T22:22:00.693Z,8.90
2022-07-26T22:24:32.133Z,9.07
2022-07-26T22:27:03.412Z,9.95
2022-07-26T22:29:34.688Z,8.32
2022-07-26T22:32:11.492Z,8.80
2022-07-26T22:34:42.680Z,8.55
2022-07-26T22:37:13.951Z,8.00
2022-07-26T22:39:45.158Z,9.60
2022-07-26T22:42:16.689Z,8.10
2022-07-26T22:44:48.086Z,7.15
2022-07-26T22:47:19.530Z,8.57
2022-07-26T22:49:51.072Z,8.43
2022-07-26T22:52:23.116Z,8.95
2022-07-26T22:54:54.707Z,8.27
2022-07-26T22:57:26.440Z,8.48
2022-07-26T22:59:57.945Z,8.30
2022-07-26T23:02:29.306Z,7.82
2022-07-26T23:05:00.777Z,8.07
2022-07-26T23:07:34.283Z,8.43
2022-07-26T23:10:08.665Z,11.90
2022-07-26T23:15:14.325Z,10.80
2022-07-26T23:17:45.519Z,8.20
2022-07-26T23:20:17.188Z,8.43
2022-07-26T23:22:48.639Z,8.02
2022-07-26T23:25:20.103Z,9.00
2022-07-26T23:27:51.649Z,8.60
2022-07-26T23:30:23.333Z,11.07
2022-07-26T23:32:54.627Z,9.00
2022-07-26T23:35:26.036Z,7.93
2022-07-26T23:37:57.563Z,7.93
2022-07-26T23:40:29.457Z,9.65
2022-07-26T23:43:21.018Z,7.97
2022-07-26T23:45:52.431Z,7.90
2022-07-26T23:48:24.022Z,8.35
2022-07-26T23:50:55.584Z,7.75
2022-07-26T23:53:27.352Z,9.23
2022-07-26T23:55:58.722Z,7.18
2022-07-26T23:58:30.039Z,9.38
